Time;durP1;ratioP1;P1;durP2;ratioP2;P2;SDS_P1;SDS_P2;PMS_P1;PMS_P2;Temp;Humidity;BMP_temperature;BMP_pressure;BME280_temperature;BME280_humidity;BME280_pressure;Samples;Min_cycle;Max_cycle;Signal;HPM_P1;HPM_P2
2022/12/26 05:09:34;;;;;;;2.10;1.60;;;12.50;99.90;;;;;;4957072;29;20389;-70
2022/12/26 05:12:05;;;;;;;2.10;1.37;;;12.50;99.90;;;;;;4957080;28;20761;-69
2022/12/26 05:14:34;;;;;;;1.80;1.70;;;12.50;99.90;;;;;;4956402;28;20848;-70
2022/12/26 05:30:57;;;;;;;1.80;1.50;;;12.50;99.90;;;;;;4956671;29;20410;-70
2022/12/26 05:36:08;;;;;;;1.67;1.50;;;12.50;99.90;;;;;;4956030;29;20183;-69
2022/12/26 05:38:35;;;;;;;1.97;1.87;;;12.50;99.90;;;;;;4956495;29;20410;-69
2022/12/26 05:41:00;;;;;;;2.27;1.60;;;12.50;99.90;;;;;;4956175;29;20482;-69
2022/12/26 05:43:26;;;;;;;1.17;1.13;;;12.50;99.90;;;;;;4955566;28;20833;-69
2022/12/26 05:45:51;;;;;;;1.80;1.70;;;12.40;99.90;;;;;;4956158;29;20164;-69
2022/12/26 05:48:17;;;;;;;1.60;1.47;;;12.40;99.90;;;;;;4955993;29;20249;-70
2022/12/26 05:50:42;;;;;;;1.90;1.80;;;12.40;99.90;;;;;;4955956;28;20179;-70
2022/12/26 05:53:08;;;;;;;1.70;1.60;;;12.40;99.90;;;;;;4955759;29;20183;-69
2022/12/26 05:55:34;;;;;;;2.10;1.50;;;12.40;99.90;;;;;;4938633;29;20200;-69
2022/12/26 05:58:00;;;;;;;3.23;2.20;;;12.40;99.90;;;;;;4938550;29;20699;-70
2022/12/26 06:00:26;;;;;;;2.27;2.07;;;12.40;99.90;;;;;;4955689;29;20674;-70
2022/12/26 06:02:52;;;;;;;2.23;2.10;;;12.40;99.90;;;;;;4955286;29;20501;-70
2022/12/26 06:05:18;;;;;;;1.83;1.73;;;12.40;99.90;;;;;;4955619;28;20487;-70
2022/12/26 06:07:43;;;;;;;1.40;1.30;;;12.40;99.90;;;;;;4955177;29;20427;-70
2022/12/26 06:10:09;;;;;;;3.27;1.87;;;12.40;99.90;;;;;;4955302;29;20431;-70
2022/12/26 06:12:36;;;;;;;2.00;1.67;;;12.40;99.90;;;;;;4955472;29;20538;-70
2022/12/26 06:15:02;;;;;;;2.00;1.80;;;12.40;99.90;;;;;;4955352;28;20413;-71
2022/12/26 06:17:28;;;;;;;2.07;1.90;;;12.50;99.90;;;;;;4954836;29;21061;-70
2022/12/26 06:19:54;;;;;;;3.80;1.90;;;12.50;99.90;;;;;;4955488;29;20415;-69
2022/12/26 06:22:19;;;;;;;1.60;1.50;;;12.50;99.90;;;;;;4955739;29;20601;-69
2022/12/26 06:24:45;;;;;;;2.10;1.80;;;12.50;99.90;;;;;;4954597;28;20685;-70
2022/12/26 06:27:10;;;;;;;1.60;1.50;;;12.50;99.90;;;;;;4955210;29;20207;-69
2022/12/26 06:29:36;;;;;;;1.60;1.50;;;12.50;99.90;;;;;;4955272;29;20592;-70
2022/12/26 06:32:03;;;;;;;1.47;1.40;;;12.50;99.90;;;;;;4955591;29;20206;-70
2022/12/26 06:34:29;;;;;;;2.57;1.77;;;12.60;99.90;;;;;;4954655;29;20202;-70
2022/12/26 06:36:55;;;;;;;2.40;2.00;;;12.60;99.90;;;;;;4955371;29;20411;-69
2022/12/26 06:39:21;;;;;;;1.97;1.70;;;12.60;99.90;;;;;;4955448;29;20175;-70
2022/12/26 06:41:47;;;;;;;1.80;1.70;;;12.60;99.90;;;;;;4955479;29;20178;-67
2022/12/26 06:44:13;;;;;;;1.30;1.20;;;12.50;99.90;;;;;;4954577;29;20528;-70
2022/12/26 06:46:38;;;;;;;2.60;2.50;;;12.50;99.90;;;;;;4967072;28;20183;-69
2022/12/26 06:49:05;;;;;;;1.30;1.20;;;12.50;99.90;;;;;;4973594;28;20777;-69
2022/12/26 06:51:31;;;;;;;1.70;1.60;;;12.50;99.90;;;;;;4973901;28;20573;-67
2022/12/26 06:54:01;;;;;;;3.50;1.00;;;12.40;99.90;;;;;;4973960;28;20805;-69
2022/12/26 06:56:27;;;;;;;1.20;1.20;;;12.40;99.90;;;;;;4974683;28;20413;-69
2022/12/26 06:58:54;;;;;;;1.97;1.87;;;12.40;99.90;;;;;;4957148;28;20441;-70
2022/12/26 07:01:21;;;;;;;1.30;1.20;;;12.40;99.90;;;;;;4967567;28;20925;-68
2022/12/26 07:03:47;;;;;;;1.63;1.53;;;12.30;99.90;;;;;;4959675;28;20802;-67
2022/12/26 07:06:24;;;;;;;1.50;1.40;;;12.30;99.90;;;;;;4958822;29;20470;-71
2022/12/26 07:08:51;;;;;;;1.43;1.33;;;12.40;99.90;;;;;;4958818;29;20389;-70
2022/12/26 07:11:19;;;;;;;1.80;1.70;;;12.40;99.90;;;;;;4958651;29;20438;-70
2022/12/26 07:13:45;;;;;;;1.43;1.30;;;12.40;99.90;;;;;;4957724;28;20447;-70
2022/12/26 07:16:11;;;;;;;1.43;1.33;;;12.40;99.90;;;;;;4952422;28;20439;-70
2022/12/26 07:18:37;;;;;;;1.30;1.20;;;12.50;99.90;;;;;;4958411;29;20179;-70
2022/12/26 07:21:06;;;;;;;1.50;1.37;;;12.50;99.90;;;;;;4958646;29;20262;-69
2022/12/26 07:23:32;;;;;;;1.93;1.83;;;12.50;99.90;;;;;;4958213;29;20477;-71
2022/12/26 07:25:58;;;;;;;1.93;1.83;;;12.50;99.90;;;;;;4958305;29;20506;-70
2022/12/26 07:28:24;;;;;;;1.70;1.60;;;12.50;99.90;;;;;;4958851;29;20180;-67
2022/12/26 07:30:49;;;;;;;2.17;1.60;;;12.50;99.90;;;;;;4958147;28;20755;-67
2022/12/26 07:33:16;;;;;;;3.90;1.77;;;12.50;99.90;;;;;;4957542;29;20184;-65
2022/12/26 07:35:42;;;;;;;1.87;1.77;;;12.50;99.90;;;;;;4957949;29;20202;-64
2022/12/26 07:38:08;;;;;;;2.10;1.90;;;12.50;99.90;;;;;;4957861;29;20423;-63
2022/12/26 07:40:33;;;;;;;3.97;2.60;;;12.50;99.90;;;;;;4958113;29;20427;-67
2022/12/26 07:42:59;;;;;;;3.10;2.20;;;12.50;99.90;;;;;;4957448;29;20477;-68
2022/12/26 07:45:25;;;;;;;4.37;1.70;;;12.50;99.90;;;;;;4958339;28;20709;-66
2022/12/26 07:47:57;;;;;;;2.07;1.83;;;12.50;99.90;;;;;;4958351;29;20175;-65
2022/12/26 07:50:24;;;;;;;1.50;1.40;;;12.50;99.90;;;;;;4957418;29;20183;-67
2022/12/26 07:52:50;;;;;;;1.70;1.60;;;12.50;99.90;;;;;;4957501;29;20431;-66
2022/12/26 07:55:16;;;;;;;1.50;1.40;;;12.50;99.90;;;;;;4940933;29;20522;-66
2022/12/26 07:57:41;;;;;;;1.37;1.27;;;12.50;99.90;;;;;;4957665;29;20179;-67
2022/12/26 08:00:08;;;;;;;2.70;1.30;;;12.40;99.90;;;;;;4948315;29;20419;-66
2022/12/26 08:02:34;;;;;;;2.17;1.73;;;12.40;99.90;;;;;;4956185;29;20640;-66
2022/12/26 08:04:59;;;;;;;1.43;1.33;;;12.40;99.90;;;;;;4956919;28;20470;-65
2022/12/26 08:07:25;;;;;;;2.30;1.57;;;12.40;99.90;;;;;;4957546;29;20178;-65
2022/12/26 08:09:51;;;;;;;2.73;1.07;;;12.40;99.90;;;;;;4972428;28;20242;-64
2022/12/26 08:12:20;;;;;;;1.57;1.47;;;12.30;99.90;;;;;;4957470;28;20186;-64
2022/12/26 08:14:46;;;;;;;1.50;1.40;;;12.30;99.90;;;;;;4955673;28;20192;-65
2022/12/26 08:17:12;;;;;;;2.27;2.07;;;12.30;99.90;;;;;;4955361;28;20972;-64
2022/12/26 08:19:38;;;;;;;2.80;2.33;;;12.20;99.90;;;;;;4944739;29;20530;-63
2022/12/26 08:22:03;;;;;;;2.30;2.10;;;12.20;99.90;;;;;;4955324;29;20459;-67
2022/12/26 08:24:29;;;;;;;1.67;1.57;;;12.20;99.90;;;;;;4957280;28;20208;-66
2022/12/26 08:26:54;;;;;;;1.80;1.70;;;12.10;99.90;;;;;;4956460;29;20187;-66
2022/12/26 08:29:20;;;;;;;1.53;1.50;;;12.00;99.90;;;;;;4956843;29;20187;-64
2022/12/26 08:31:45;;;;;;;1.50;1.43;;;12.00;99.90;;;;;;4956760;29;20586;-66
2022/12/26 08:34:12;;;;;;;1.33;1.20;;;12.00;99.90;;;;;;4957041;28;20271;-66
2022/12/26 08:36:38;;;;;;;1.40;1.33;;;12.00;99.90;;;;;;4956490;28;20545;-65
2022/12/26 08:39:04;;;;;;;1.70;1.60;;;11.90;99.90;;;;;;4951742;28;20451;-68
2022/12/26 08:41:30;;;;;;;2.53;2.10;;;11.90;99.90;;;;;;4956032;29;20805;-69
2022/12/26 08:43:56;;;;;;;1.70;1.60;;;11.90;99.90;;;;;;4952432;29;20463;-66
2022/12/26 08:46:21;;;;;;;1.90;1.80;;;11.80;99.90;;;;;;4955330;29;20657;-66
2022/12/26 08:48:48;;;;;;;1.30;1.30;;;11.80;99.90;;;;;;4955156;29;20663;-66
2022/12/26 08:51:20;;;;;;;1.90;1.80;;;11.80;99.90;;;;;;4940896;29;20421;-64
2022/12/26 08:53:48;;;;;;;1.70;1.60;;;11.80;99.90;;;;;;4952004;29;20447;-67
2022/12/26 08:56:19;;;;;;;1.70;1.63;;;11.80;99.90;;;;;;4956981;29;20517;-68
2022/12/26 08:58:45;;;;;;;2.00;1.60;;;11.80;99.90;;;;;;4957070;29;20498;-66
2022/12/26 09:01:13;;;;;;;1.83;1.70;;;11.80;99.90;;;;;;4956739;29;20431;-66
2022/12/26 09:03:40;;;;;;;1.60;1.50;;;11.80;99.90;;;;;;4954781;29;20494;-65
2022/12/26 09:06:06;;;;;;;1.90;1.80;;;11.80;99.90;;;;;;4956490;28;20424;-64
2022/12/26 09:08:33;;;;;;;4.47;2.87;;;11.80;99.90;;;;;;4956319;28;20463;-64
2022/12/26 09:11:20;;;;;;;3.33;2.53;;;11.80;99.90;;;;;;4937599;29;20780;-70
2022/12/26 09:13:46;;;;;;;2.73;2.53;;;11.80;99.90;;;;;;4947247;29;20449;-64
2022/12/26 09:16:13;;;;;;;2.47;2.17;;;11.80;99.90;;;;;;4956311;29;20448;-67
2022/12/26 09:18:40;;;;;;;2.80;2.20;;;11.70;99.90;;;;;;4956386;29;20495;-64
2022/12/26 09:21:08;;;;;;;2.07;1.90;;;11.80;99.90;;;;;;4955997;29;20918;-68
2022/12/26 09:23:34;;;;;;;2.43;2.23;;;11.70;99.90;;;;;;4955267;29;20470;-66
2022/12/26 09:26:08;;;;;;;2.33;2.23;;;11.60;99.90;;;;;;4955587;28;20821;-67
2022/12/26 09:28:34;;;;;;;4.10;1.90;;;11.60;99.90;;;;;;4956035;29;20506;-65
2022/12/26 09:31:02;;;;;;;2.37;2.17;;;11.50;99.90;;;;;;4956080;29;20761;-66
2022/12/26 09:33:29;;;;;;;1.85;1.75;;;11.40;99.90;;;;;;4955331;28;20429;-67
2022/12/26 09:35:55;;;;;;;1.90;1.50;;;11.30;99.90;;;;;;4956347;29;20189;-66
2022/12/26 09:38:20;;;;;;;2.47;2.27;;;11.40;99.90;;;;;;4955955;29;20428;-64
2022/12/26 09:41:23;;;;;;;3.27;2.53;;;11.40;99.90;;;;;;4955914;29;20439;-65
2022/12/26 09:44:02;;;;;;;2.07;1.80;;;11.30;99.90;;;;;;4955197;29;20285;-64
2022/12/26 09:46:27;;;;;;;2.83;2.23;;;11.40;99.90;;;;;;4949974;28;20441;-66
2022/12/26 09:49:11;;;;;;;3.13;2.53;;;11.40;99.90;;;;;;4955782;29;20419;-67
2022/12/26 09:51:38;;;;;;;2.50;2.30;;;11.40;99.90;;;;;;4955845;29;20559;-67
2022/12/26 09:54:07;;;;;;;3.33;2.93;;;11.30;99.90;;;;;;4955190;28;20443;-67
2022/12/26 09:56:37;;;;;;;3.40;3.10;;;11.20;99.90;;;;;;4955582;29;20422;-67
2022/12/26 09:59:18;;;;;;;2.33;2.20;;;11.10;99.90;;;;;;4955940;29;20413;-67
2022/12/26 10:01:47;;;;;;;3.17;2.53;;;11.10;99.90;;;;;;4938314;29;20441;-65
2022/12/26 10:04:18;;;;;;;2.83;2.63;;;11.00;99.90;;;;;;4955217;28;20978;-65
2022/12/26 10:06:50;;;;;;;2.33;2.20;;;10.90;99.90;;;;;;4955564;29;20824;-65
2022/12/26 10:09:43;;;;;;;2.90;2.60;;;10.80;99.90;;;;;;4955110;29;20670;-67
2022/12/26 10:12:09;;;;;;;2.15;2.03;;;10.70;99.90;;;;;;4940746;29;20159;-64
2022/12/26 10:15:05;;;;;;;3.70;2.90;;;10.60;99.90;;;;;;4952274;28;20740;-69
2022/12/26 10:17:34;;;;;;;3.70;3.40;;;10.60;99.90;;;;;;4955097;29;20193;-69
2022/12/26 10:20:15;;;;;;;3.63;3.27;;;10.60;99.90;;;;;;4954903;29;20273;-70
2022/12/26 10:22:59;;;;;;;2.85;2.65;;;10.50;99.90;;;;;;4954903;29;20532;-72
2022/12/26 10:25:32;;;;;;;3.60;2.83;;;10.50;99.90;;;;;;4934795;29;20269;-65
2022/12/26 10:27:58;;;;;;;4.97;4.20;;;10.50;99.90;;;;;;4954481;29;20836;-72
2022/12/26 10:30:29;;;;;;;4.63;3.25;;;10.60;99.90;;;;;;4955114;29;20177;-67
2022/12/26 10:33:01;;;;;;;5.20;3.53;;;10.60;99.90;;;;;;4954564;29;20181;-65
2022/12/26 10:35:31;;;;;;;4.25;3.28;;;10.60;99.90;;;;;;4955195;28;20569;-66
2022/12/26 10:38:19;;;;;;;2.83;2.38;;;10.60;99.90;;;;;;4953719;28;20225;-66
2022/12/26 10:40:49;;;;;;;4.32;3.90;;;10.60;99.90;;;;;;4953963;29;20672;-66
2022/12/26 10:43:27;;;;;;;3.22;2.58;;;10.60;99.90;;;;;;4954373;29;20208;-63
2022/12/26 10:46:20;;;;;;;2.40;2.20;;;10.60;99.90;;;;;;4937720;29;20167;-65
2022/12/26 10:48:47;;;;;;;3.20;2.40;;;10.60;99.90;;;;;;4953871;29;20858;-74
2022/12/26 10:51:13;;;;;;;2.60;2.40;;;10.70;99.90;;;;;;4955284;29;20555;-66
2022/12/26 10:53:46;;;;;;;2.28;2.00;;;10.70;99.90;;;;;;4954164;29;20185;-67
2022/12/26 10:56:11;;;;;;;3.35;2.40;;;10.80;99.90;;;;;;4954792;29;20185;-67
2022/12/26 10:58:38;;;;;;;3.20;2.57;;;10.80;99.90;;;;;;4954591;29;20205;-69
2022/12/26 11:01:23;;;;;;;4.05;2.58;;;10.80;99.90;;;;;;4954571;29;20178;-67
2022/12/26 11:04:00;;;;;;;2.25;2.10;;;10.90;99.90;;;;;;4954343;29;20200;-69
2022/12/26 11:06:53;;;;;;;2.22;2.05;;;10.90;99.90;;;;;;4954701;29;20297;-67
2022/12/26 11:09:32;;;;;;;2.50;2.30;;;10.90;99.90;;;;;;4941573;29;20242;-69
2022/12/26 11:11:58;;;;;;;2.67;2.17;;;11.00;99.90;;;;;;4954350;29;20480;-63
2022/12/26 11:14:36;;;;;;;2.40;2.20;;;11.00;99.90;;;;;;4954133;29;20210;-68
2022/12/26 11:17:23;;;;;;;2.00;1.90;;;11.00;99.90;;;;;;4954562;29;20169;-64
2022/12/26 11:20:27;;;;;;;1.95;1.85;;;11.00;99.90;;;;;;4954564;29;20521;-63
2022/12/26 11:22:53;;;;;;;3.03;2.42;;;11.00;99.90;;;;;;4949691;29;20221;-63
2022/12/26 11:25:29;;;;;;;1.87;1.77;;;11.00;99.90;;;;;;4937241;29;20198;-63
2022/12/26 11:27:56;;;;;;;1.90;1.77;;;11.10;99.90;;;;;;4954718;29;20524;-62
2022/12/26 11:30:27;;;;;;;2.50;2.30;;;11.00;99.90;;;;;;4954012;29;20223;-63
2022/12/26 11:33:33;;;;;;;2.22;2.05;;;11.10;99.90;;;;;;4954366;29;20511;-64
2022/12/26 11:36:14;;;;;;;2.00;1.90;;;11.10;99.90;;;;;;4953024;29;20641;-64
2022/12/26 11:38:51;;;;;;;2.78;1.75;;;11.10;99.90;;;;;;4953464;28;20184;-64
2022/12/26 11:41:38;;;;;;;4.03;1.80;;;11.10;99.90;;;;;;4952530;29;20203;-65
2022/12/26 11:44:12;;;;;;;1.85;1.33;;;11.10;99.90;;;;;;4951564;29;20464;-67
2022/12/26 11:46:43;;;;;;;1.50;1.33;;;11.10;99.90;;;;;;4954650;29;20182;-67
2022/12/26 11:49:23;;;;;;;1.80;1.23;;;11.10;99.90;;;;;;4956589;28;20912;-66
2022/12/26 11:51:50;;;;;;;0.98;0.98;;;11.10;99.90;;;;;;4957764;29;20408;-67
2022/12/26 11:54:27;;;;;;;1.73;1.30;;;11.10;99.90;;;;;;4958362;28;20291;-68
2022/12/26 11:57:19;;;;;;;1.75;1.23;;;11.20;99.90;;;;;;4958181;28;20787;-68
2022/12/26 11:59:46;;;;;;;1.10;1.10;;;11.10;99.90;;;;;;4958156;29;20184;-69
2022/12/26 12:02:30;;;;;;;2.37;1.83;;;11.20;99.90;;;;;;4957998;29;20204;-69
2022/12/26 12:05:00;;;;;;;1.08;1.08;;;11.20;99.90;;;;;;4955879;29;20479;-69
2022/12/26 12:07:29;;;;;;;1.10;1.10;;;11.20;99.90;;;;;;4958547;29;20169;-69
2022/12/26 12:10:24;;;;;;;1.63;0.80;;;11.20;99.90;;;;;;4958462;29;20177;-70
2022/12/26 12:12:58;;;;;;;2.43;1.20;;;11.20;99.90;;;;;;4957870;29;20357;-74
2022/12/26 12:15:30;;;;;;;1.02;0.95;;;11.20;99.90;;;;;;4963244;29;20434;-69
2022/12/26 12:18:21;;;;;;;1.00;1.00;;;11.20;99.90;;;;;;4966220;29;20184;-71
2022/12/26 12:20:59;;;;;;;1.57;1.13;;;11.30;99.90;;;;;;4966904;29;20188;-69
2022/12/26 12:23:42;;;;;;;1.33;1.23;;;11.30;99.90;;;;;;4965618;29;20456;-68
2022/12/26 12:26:22;;;;;;;1.30;1.20;;;11.40;99.90;;;;;;4963854;29;20404;-68
2022/12/26 12:29:01;;;;;;;1.77;1.20;;;11.50;99.90;;;;;;4965508;29;20424;-71
2022/12/26 12:31:49;;;;;;;1.20;1.10;;;11.60;99.90;;;;;;4960115;29;20482;-67
2022/12/26 12:34:36;;;;;;;0.80;0.80;;;11.70;99.90;;;;;;4960480;29;20450;-69
2022/12/26 12:37:25;;;;;;;0.73;0.73;;;11.70;99.90;;;;;;4957742;29;20496;-70
2022/12/26 12:40:29;;;;;;;0.90;0.90;;;11.70;99.90;;;;;;4929791;29;20478;-74
2022/12/26 12:43:32;;;;;;;0.80;0.80;;;11.70;99.90;;;;;;4954980;29;20472;-73
2022/12/26 12:45:58;;;;;;;0.80;0.80;;;11.70;99.90;;;;;;4945482;29;20499;-68
2022/12/26 12:48:52;;;;;;;1.00;0.80;;;11.80;99.90;;;;;;4959726;29;20446;-67
2022/12/26 12:51:17;;;;;;;1.20;1.10;;;11.80;99.90;;;;;;4957043;29;20619;-68
2022/12/26 12:53:59;;;;;;;1.43;0.80;;;11.80;99.90;;;;;;4956721;29;20508;-68
2022/12/26 12:56:37;;;;;;;1.23;1.20;;;11.80;99.90;;;;;;4943591;29;20588;-69
2022/12/26 12:59:15;;;;;;;2.30;1.30;;;11.80;99.90;;;;;;4956630;29;20416;-68
2022/12/26 13:01:48;;;;;;;0.97;0.97;;;11.80;99.90;;;;;;4955593;28;20517;-69
2022/12/26 13:04:17;;;;;;;1.17;0.83;;;11.80;99.90;;;;;;4955910;28;20419;-69
2022/12/26 13:06:45;;;;;;;0.80;0.80;;;11.80;99.90;;;;;;4956657;29;20778;-69
2022/12/26 13:09:29;;;;;;;1.27;1.17;;;11.80;99.90;;;;;;4955801;29;20409;-69
2022/12/26 13:12:07;;;;;;;0.80;0.80;;;11.80;99.90;;;;;;4956860;29;20406;-69
2022/12/26 13:14:38;;;;;;;0.80;0.80;;;11.80;99.90;;;;;;4939139;29;20437;-69
2022/12/26 13:17:25;;;;;;;0.80;0.80;;;11.80;99.90;;;;;;4956169;29;20754;-68
2022/12/26 13:19:55;;;;;;;1.73;1.20;;;11.80;99.90;;;;;;4954519;29;20457;-68
2022/12/26 13:25:31;;;;;;;0.70;0.70;;;11.80;99.90;;;;;;4954456;29;20525;-68
2022/12/26 13:28:08;;;;;;;0.80;0.80;;;11.70;99.90;;;;;;4954421;29;20402;-68
2022/12/26 13:30:34;;;;;;;0.60;0.60;;;11.70;99.90;;;;;;4954262;29;20433;-69
2022/12/26 13:33:01;;;;;;;0.83;0.73;;;11.70;99.90;;;;;;4954322;29;20519;-66
2022/12/26 13:35:45;;;;;;;0.50;0.50;;;11.70;99.90;;;;;;4955808;29;20500;-69
2022/12/26 13:38:11;;;;;;;0.93;0.93;;;11.70;99.90;;;;;;4955821;29;20825;-69
2022/12/26 13:40:44;;;;;;;1.20;1.20;;;11.70;99.90;;;;;;4955828;29;20433;-69
2022/12/26 13:46:24;;;;;;;0.60;0.60;;;11.70;99.90;;;;;;4956173;29;20413;-69
2022/12/26 13:48:56;;;;;;;1.10;1.10;;;11.70;99.90;;;;;;4955798;29;20523;-69
2022/12/26 13:51:46;;;;;;;0.60;0.60;;;11.70;99.90;;;;;;4955742;29;20408;-68
2022/12/26 13:54:13;;;;;;;1.13;1.03;;;11.70;99.90;;;;;;4946385;28;20542;-66
2022/12/26 13:56:39;;;;;;;2.33;2.03;;;11.80;99.90;;;;;;4939125;29;20474;-68
2022/12/26 13:59:31;;;;;;;0.70;0.70;;;11.80;99.90;;;;;;4955726;29;20441;-69
2022/12/26 14:02:08;;;;;;;2.60;1.40;;;11.80;99.90;;;;;;4956215;29;20640;-69
2022/12/26 14:04:55;;;;;;;1.23;1.00;;;11.80;99.90;;;;;;4955538;28;20983;-69
2022/12/26 14:07:43;;;;;;;1.40;1.30;;;11.80;99.90;;;;;;4956001;29;20414;-68
2022/12/26 14:10:18;;;;;;;0.87;0.87;;;11.80;99.90;;;;;;4955996;29;20440;-68
2022/12/26 14:13:01;;;;;;;0.60;0.60;;;11.80;99.90;;;;;;4955344;28;20475;-69
2022/12/26 14:15:50;;;;;;;0.67;0.67;;;11.90;99.90;;;;;;4938285;29;20886;-69
2022/12/26 14:18:43;;;;;;;0.90;0.90;;;11.90;99.90;;;;;;4955659;29;20407;-68
2022/12/26 14:21:57;;;;;;;1.03;0.97;;;11.90;99.90;;;;;;4938603;29;20477;-70
2022/12/26 14:24:44;;;;;;;0.70;0.70;;;11.80;99.90;;;;;;4843625;29;20499;-70
2022/12/26 14:27:30;;;;;;;0.67;0.67;;;11.70;99.90;;;;;;4859418;29;20832;-69
2022/12/26 14:30:05;;;;;;;0.63;0.63;;;11.70;99.90;;;;;;4917087;29;20451;-69
2022/12/26 14:33:04;;;;;;;1.10;1.10;;;11.70;99.90;;;;;;4936686;29;20403;-69
2022/12/26 14:35:36;;;;;;;1.33;0.83;;;11.70;99.90;;;;;;4937656;29;20832;-70
2022/12/26 14:38:29;;;;;;;1.23;1.03;;;11.70;99.90;;;;;;4939558;29;20417;-70
2022/12/26 14:41:07;;;;;;;1.27;0.80;;;11.70;99.90;;;;;;4945187;29;20410;-69
2022/12/26 14:43:39;;;;;;;0.80;0.80;;;11.70;99.90;;;;;;4956011;28;20470;-69
2022/12/26 14:46:30;;;;;;;0.70;0.70;;;11.70;99.90;;;;;;4956116;29;20813;-69
2022/12/26 14:49:26;;;;;;;0.50;0.50;;;11.60;99.90;;;;;;4956984;29;20445;-69
2022/12/26 14:51:51;;;;;;;0.77;0.77;;;11.60;99.90;;;;;;4927920;29;20436;-69
2022/12/26 14:54:21;;;;;;;1.47;0.93;;;11.70;99.90;;;;;;4955202;28;20818;-69
2022/12/26 14:56:48;;;;;;;0.70;0.70;;;11.70;99.90;;;;;;4955852;29;20194;-69
2022/12/26 14:59:33;;;;;;;0.80;0.80;;;11.80;99.90;;;;;;4956108;29;20414;-69
2022/12/26 15:02:17;;;;;;;0.70;0.70;;;11.80;99.90;;;;;;4955710;29;20406;-69
2022/12/26 15:05:01;;;;;;;0.70;0.70;;;11.80;99.90;;;;;;4955019;29;20775;-68
2022/12/26 15:07:37;;;;;;;0.93;0.90;;;11.80;99.90;;;;;;4955520;29;20417;-70
2022/12/26 15:10:41;;;;;;;0.73;0.73;;;11.80;99.90;;;;;;4955297;29;20402;-68
2022/12/26 15:13:34;;;;;;;0.67;0.67;;;11.70;99.90;;;;;;4954795;29;20449;-69
2022/12/26 15:16:32;;;;;;;0.70;0.70;;;11.70;99.90;;;;;;4954897;29;20478;-69
2022/12/26 15:19:21;;;;;;;0.67;0.67;;;11.60;99.90;;;;;;4938595;29;20515;-69
2022/12/26 15:21:58;;;;;;;1.07;1.07;;;11.60;99.90;;;;;;4956406;29;20412;-69
2022/12/26 15:24:45;;;;;;;0.80;0.80;;;11.60;99.90;;;;;;4957444;28;20439;-69
2022/12/26 15:27:48;;;;;;;0.67;0.67;;;11.50;99.90;;;;;;4958896;29;20653;-70
2022/12/26 15:30:27;;;;;;;0.88;0.73;;;11.40;99.90;;;;;;4958722;29;20487;-69
2022/12/26 15:33:13;;;;;;;1.70;1.13;;;11.40;99.90;;;;;;4958476;29;20649;-69
2022/12/26 15:35:49;;;;;;;0.57;0.57;;;11.30;99.90;;;;;;4959142;28;20430;-69
2022/12/26 15:38:55;;;;;;;0.73;0.73;;;11.30;99.90;;;;;;4958587;29;20213;-69
2022/12/26 15:41:29;;;;;;;0.60;0.60;;;11.30;99.90;;;;;;4958816;29;20641;-70
2022/12/26 15:44:34;;;;;;;1.03;1.00;;;11.30;99.90;;;;;;4958157;29;20280;-69
2022/12/26 15:47:17;;;;;;;0.80;0.68;;;11.30;99.90;;;;;;4957835;28;20504;-69
2022/12/26 15:50:01;;;;;;;0.77;0.77;;;11.30;99.90;;;;;;4958588;29;20179;-69
2022/12/26 15:52:35;;;;;;;1.23;1.17;;;11.30;99.90;;;;;;4958537;29;20458;-69
2022/12/26 15:55:39;;;;;;;0.83;0.83;;;11.40;99.90;;;;;;4957915;29;20482;-69
2022/12/26 15:58:28;;;;;;;0.80;0.80;;;11.30;99.90;;;;;;4958127;29;20920;-70
2022/12/26 16:00:54;;;;;;;2.53;0.60;;;11.30;99.90;;;;;;4958316;29;20418;-69
2022/12/26 16:03:43;;;;;;;0.60;0.60;;;11.30;99.90;;;;;;4957512;29;20456;-70
2022/12/26 16:06:24;;;;;;;1.10;0.63;;;11.30;99.90;;;;;;4957408;29;20888;-69
2022/12/26 16:08:56;;;;;;;0.80;0.80;;;11.30;99.90;;;;;;4957970;29;20421;-70
2022/12/26 16:11:23;;;;;;;0.73;0.73;;;11.30;99.90;;;;;;4958441;29;20403;-69
2022/12/26 16:13:55;;;;;;;1.00;1.00;;;11.30;99.90;;;;;;4957738;28;20437;-70
2022/12/26 16:16:26;;;;;;;0.77;0.73;;;11.30;99.90;;;;;;4958162;29;20410;-68
2022/12/26 16:18:52;;;;;;;1.03;0.93;;;11.30;99.90;;;;;;4958065;29;20409;-69
2022/12/26 16:24:07;;;;;;;1.23;1.13;;;11.40;99.90;;;;;;4957481;29;20580;-69
2022/12/26 16:26:43;;;;;;;1.07;1.00;;;11.40;99.90;;;;;;4957817;29;20411;-68
2022/12/26 16:29:14;;;;;;;1.27;1.17;;;11.40;99.90;;;;;;4957758;29;20397;-70
2022/12/26 16:31:40;;;;;;;1.20;1.20;;;11.40;99.90;;;;;;4957511;29;20171;-70
2022/12/26 16:34:09;;;;;;;1.10;1.10;;;11.40;99.90;;;;;;4956519;28;20439;-69
2022/12/26 16:36:35;;;;;;;1.03;1.00;;;11.40;99.90;;;;;;4945614;29;20267;-69
2022/12/26 16:39:07;;;;;;;0.87;0.87;;;11.30;99.90;;;;;;4956900;29;20444;-69
2022/12/26 16:41:37;;;;;;;0.90;0.70;;;11.30;99.90;;;;;;4956988;29;20258;-70
2022/12/26 16:44:29;;;;;;;1.00;1.00;;;11.40;99.90;;;;;;4956697;29;20966;-71
2022/12/26 16:46:55;;;;;;;1.83;1.50;;;11.40;99.90;;;;;;4957247;29;20402;-69
2022/12/26 16:49:24;;;;;;;2.83;2.23;;;11.40;99.90;;;;;;4957196;29;20193;-66
2022/12/26 16:51:51;;;;;;;1.73;1.40;;;11.40;99.90;;;;;;4956804;29;20425;-67
2022/12/26 16:54:16;;;;;;;1.57;1.03;;;11.40;99.90;;;;;;4956749;29;20437;-69
2022/12/26 16:56:50;;;;;;;1.60;1.50;;;11.30;99.90;;;;;;4957230;29;20949;-69
2022/12/26 16:59:19;;;;;;;1.90;1.80;;;11.30;99.90;;;;;;4956850;29;20238;-66
2022/12/26 17:01:56;;;;;;;1.10;1.10;;;11.30;99.90;;;;;;4939625;29;20440;-66
2022/12/26 17:04:25;;;;;;;1.27;1.17;;;11.30;99.90;;;;;;4956640;29;20442;-68
2022/12/26 17:07:14;;;;;;;3.10;2.30;;;11.30;99.90;;;;;;4956804;29;20423;-65
2022/12/26 17:09:43;;;;;;;1.70;1.60;;;11.30;99.90;;;;;;4956453;29;20425;-65
2022/12/26 17:12:20;;;;;;;1.13;1.02;;;11.30;99.90;;;;;;4956799;29;20438;-67
2022/12/26 17:14:48;;;;;;;0.80;0.80;;;11.30;99.90;;;;;;4956652;29;20269;-69
2022/12/26 17:17:20;;;;;;;1.43;1.27;;;11.30;99.90;;;;;;4956802;29;20443;-71
2022/12/26 17:19:46;;;;;;;1.73;1.00;;;11.30;99.90;;;;;;4956555;29;20517;-70
2022/12/26 17:22:16;;;;;;;1.30;0.90;;;11.30;99.90;;;;;;4956777;29;20471;-70
2022/12/26 17:24:46;;;;;;;1.00;1.00;;;11.40;99.90;;;;;;4956372;28;20430;-72
2022/12/26 17:27:19;;;;;;;2.30;1.07;;;11.30;99.90;;;;;;4955776;28;20905;-70
2022/12/26 17:29:55;;;;;;;0.65;0.65;;;11.30;99.90;;;;;;4955871;29;20426;-70
2022/12/26 17:32:38;;;;;;;0.80;0.80;;;11.30;99.90;;;;;;4956076;29;20203;-67
2022/12/26 17:35:18;;;;;;;1.27;0.83;;;11.30;99.90;;;;;;4955973;28;20816;-67
2022/12/26 17:37:45;;;;;;;0.70;0.70;;;11.30;99.90;;;;;;4956529;28;20414;-71
2022/12/26 17:40:14;;;;;;;1.40;0.73;;;11.30;99.90;;;;;;4955544;29;20465;-69
2022/12/26 17:42:52;;;;;;;0.80;0.80;;;11.20;99.90;;;;;;4955501;29;20546;-70
2022/12/26 17:45:24;;;;;;;1.03;1.03;;;11.20;99.90;;;;;;4953202;28;20534;-68
2022/12/26 17:47:52;;;;;;;0.93;0.93;;;11.10;99.90;;;;;;4954450;28;20746;-66
2022/12/26 17:50:18;;;;;;;0.93;0.93;;;11.10;99.90;;;;;;4954734;29;20467;-68
2022/12/26 17:52:43;;;;;;;1.40;1.30;;;11.00;99.90;;;;;;4954531;29;20418;-69
2022/12/26 17:55:20;;;;;;;1.03;1.03;;;11.00;99.90;;;;;;4954621;29;20276;-68
2022/12/26 17:57:46;;;;;;;2.40;2.20;;;10.90;99.90;;;;;;4955061;29;20201;-71
2022/12/26 18:00:20;;;;;;;6.30;4.47;;;10.90;99.90;;;;;;4959403;29;20216;-68
2022/12/26 18:02:46;;;;;;;3.17;2.87;;;10.80;99.90;;;;;;4965936;29;20201;-66
2022/12/26 18:05:12;;;;;;;1.75;1.50;;;10.80;99.90;;;;;;4967755;28;20457;-67
2022/12/26 18:07:38;;;;;;;1.70;1.60;;;10.70;99.90;;;;;;4967332;29;20206;-69
2022/12/26 18:10:04;;;;;;;8.10;5.93;;;10.70;99.90;;;;;;4957264;29;20513;-68
2022/12/26 18:12:30;;;;;;;2.95;2.75;;;10.60;99.90;;;;;;4955651;29;20420;-73
2022/12/26 18:14:56;;;;;;;1.47;1.40;;;10.50;99.90;;;;;;4954669;29;20209;-73
2022/12/26 18:17:21;;;;;;;1.90;1.80;;;10.40;99.90;;;;;;4955388;29;20174;-73
2022/12/26 18:19:50;;;;;;;1.80;1.70;;;10.40;99.90;;;;;;4955252;29;20178;-72
2022/12/26 18:22:18;;;;;;;2.67;1.77;;;10.30;99.90;;;;;;4955383;29;20683;-74
2022/12/26 18:24:43;;;;;;;2.17;2.00;;;10.30;99.90;;;;;;4955049;28;20207;-74
2022/12/26 18:27:42;;;;;;;1.57;1.47;;;10.30;99.90;;;;;;4938152;29;20543;-70
2022/12/26 18:30:17;;;;;;;3.30;2.20;;;10.20;99.90;;;;;;4902966;29;20512;-72
2022/12/26 18:32:42;;;;;;;1.65;1.55;;;10.20;99.90;;;;;;4954891;29;20211;-74
2022/12/26 18:35:09;;;;;;;2.20;1.30;;;10.20;99.90;;;;;;4955213;28;20601;-75
2022/12/26 18:37:35;;;;;;;0.70;0.70;;;10.20;99.90;;;;;;4954901;29;20199;-65
2022/12/26 18:40:01;;;;;;;1.63;1.52;;;10.20;99.90;;;;;;4954296;29;20240;-69
2022/12/26 18:42:27;;;;;;;0.80;0.80;;;10.20;99.90;;;;;;4954567;29;20283;-68
2022/12/26 18:44:53;;;;;;;1.37;1.23;;;10.10;99.90;;;;;;4935858;29;20325;-67
2022/12/26 18:47:20;;;;;;;2.55;1.35;;;10.10;99.90;;;;;;4939498;29;20412;-67
2022/12/26 18:49:45;;;;;;;1.35;0.63;;;10.00;99.90;;;;;;4954720;29;20177;-68
2022/12/26 18:52:11;;;;;;;0.70;0.70;;;10.00;99.90;;;;;;4954908;29;20185;-66
2022/12/26 18:54:37;;;;;;;0.70;0.70;;;9.90;99.90;;;;;;4953225;29;20424;-71